TAF KFLO
AMD KFLO 081924Z 0819/0918 35004KT 5SM BR OVC005 TEMPO 0819/0822 2SM BR OVC004 FM082300 34003KT P6SM SCT007 OVC015 FM090200 34004KT P6SM SKC FM090800 00000KT 3SM BR SKC FM091300 07008KT P6SM SKC=
METAR KFLO
WC KFLO
WS KFLO
WV KFLO